sensor_id;sensor_type;location;lat;lon;timestamp;P1;durP1;ratioP1;P2;durP2;ratioP2
77868;SDS011;67231;59.144;37.934;2024-02-21T00:02:20;3.58;;;1.77;;
77868;SDS011;67231;59.144;37.934;2024-02-21T00:04:46;5.22;;;2.17;;
77868;SDS011;67231;59.144;37.934;2024-02-21T00:07:13;2.95;;;1.58;;
77868;SDS011;67231;59.144;37.934;2024-02-21T00:09:39;6.78;;;2.78;;
77868;SDS011;67231;59.144;37.934;2024-02-21T00:12:06;5.90;;;3.28;;
77868;SDS011;67231;59.144;37.934;2024-02-21T00:14:32;2.90;;;1.60;;
77868;SDS011;67231;59.144;37.934;2024-02-21T00:16:59;2.92;;;1.90;;
77868;SDS011;67231;59.144;37.934;2024-02-21T00:19:25;5.05;;;2.22;;
77868;SDS011;67231;59.144;37.934;2024-02-21T00:21:51;3.90;;;2.35;;
77868;SDS011;67231;59.144;37.934;2024-02-21T00:24:17;4.90;;;2.50;;
77868;SDS011;67231;59.144;37.934;2024-02-21T00:26:44;4.25;;;2.25;;
77868;SDS011;67231;59.144;37.934;2024-02-21T00:29:10;4.38;;;2.80;;
77868;SDS011;67231;59.144;37.934;2024-02-21T00:31:36;4.15;;;1.80;;
77868;SDS011;67231;59.144;37.934;2024-02-21T00:34:03;4.78;;;2.70;;
77868;SDS011;67231;59.144;37.934;2024-02-21T00:36:29;5.38;;;2.92;;
77868;SDS011;67231;59.144;37.934;2024-02-21T00:38:55;5.15;;;2.92;;
77868;SDS011;67231;59.144;37.934;2024-02-21T00:41:21;5.97;;;2.88;;
77868;SDS011;67231;59.144;37.934;2024-02-21T00:43:48;4.30;;;1.88;;
77868;SDS011;67231;59.144;37.934;2024-02-21T00:46:16;5.93;;;3.28;;
77868;SDS011;67231;59.144;37.934;2024-02-21T00:48:42;6.22;;;2.92;;
77868;SDS011;67231;59.144;37.934;2024-02-21T00:51:08;3.42;;;1.55;;
77868;SDS011;67231;59.144;37.934;2024-02-21T00:53:34;2.53;;;1.58;;
77868;SDS011;67231;59.144;37.934;2024-02-21T00:56:05;4.63;;;2.45;;
77868;SDS011;67231;59.144;37.934;2024-02-21T00:58:32;5.00;;;2.42;;
77868;SDS011;67231;59.144;37.934;2024-02-21T01:00:58;5.20;;;2.85;;
77868;SDS011;67231;59.144;37.934;2024-02-21T01:03:24;8.85;;;2.83;;
77868;SDS011;67231;59.144;37.934;2024-02-21T01:05:50;3.50;;;2.13;;
77868;SDS011;67231;59.144;37.934;2024-02-21T01:08:17;6.38;;;3.05;;
77868;SDS011;67231;59.144;37.934;2024-02-21T01:10:43;4.88;;;2.55;;
77868;SDS011;67231;59.144;37.934;2024-02-21T01:13:10;7.13;;;3.22;;
77868;SDS011;67231;59.144;37.934;2024-02-21T01:15:36;7.07;;;3.15;;
77868;SDS011;67231;59.144;37.934;2024-02-21T01:18:02;7.35;;;3.30;;
77868;SDS011;67231;59.144;37.934;2024-02-21T01:20:30;5.07;;;2.75;;
77868;SDS011;67231;59.144;37.934;2024-02-21T01:22:57;4.18;;;2.13;;
77868;SDS011;67231;59.144;37.934;2024-02-21T01:25:23;6.53;;;3.00;;
77868;SDS011;67231;59.144;37.934;2024-02-21T01:27:49;7.43;;;2.80;;
77868;SDS011;67231;59.144;37.934;2024-02-21T01:30:16;10.85;;;3.05;;
77868;SDS011;67231;59.144;37.934;2024-02-21T01:32:42;4.70;;;2.92;;
77868;SDS011;67231;59.144;37.934;2024-02-21T01:35:08;4.32;;;1.92;;
77868;SDS011;67231;59.144;37.934;2024-02-21T01:37:35;4.82;;;2.70;;
77868;SDS011;67231;59.144;37.934;2024-02-21T01:40:01;5.10;;;2.60;;
77868;SDS011;67231;59.144;37.934;2024-02-21T01:42:29;2.47;;;1.25;;
77868;SDS011;67231;59.144;37.934;2024-02-21T01:44:55;6.22;;;3.30;;
77868;SDS011;67231;59.144;37.934;2024-02-21T01:47:22;8.82;;;3.22;;
77868;SDS011;67231;59.144;37.934;2024-02-21T01:49:49;7.55;;;3.60;;
77868;SDS011;67231;59.144;37.934;2024-02-21T01:52:15;4.95;;;2.75;;
77868;SDS011;67231;59.144;37.934;2024-02-21T01:54:43;4.63;;;2.75;;
77868;SDS011;67231;59.144;37.934;2024-02-21T01:57:10;8.57;;;3.42;;
77868;SDS011;67231;59.144;37.934;2024-02-21T01:59:37;7.03;;;3.50;;
77868;SDS011;67231;59.144;37.934;2024-02-21T02:02:04;7.22;;;3.92;;
77868;SDS011;67231;59.144;37.934;2024-02-21T02:04:31;5.88;;;3.47;;
77868;SDS011;67231;59.144;37.934;2024-02-21T02:06:59;6.72;;;3.60;;
77868;SDS011;67231;59.144;37.934;2024-02-21T02:09:28;7.72;;;3.92;;
77868;SDS011;67231;59.144;37.934;2024-02-21T02:11:55;6.07;;;3.33;;
77868;SDS011;67231;59.144;37.934;2024-02-21T02:14:24;8.80;;;4.15;;
77868;SDS011;67231;59.144;37.934;2024-02-21T02:16:51;6.07;;;2.90;;
77868;SDS011;67231;59.144;37.934;2024-02-21T02:19:18;7.50;;;3.95;;
77868;SDS011;67231;59.144;37.934;2024-02-21T02:21:50;10.10;;;3.63;;
77868;SDS011;67231;59.144;37.934;2024-02-21T02:24:22;6.90;;;3.40;;
77868;SDS011;67231;59.144;37.934;2024-02-21T02:26:51;7.80;;;4.07;;
77868;SDS011;67231;59.144;37.934;2024-02-21T02:29:18;5.22;;;2.58;;
77868;SDS011;67231;59.144;37.934;2024-02-21T02:31:45;6.95;;;3.15;;
77868;SDS011;67231;59.144;37.934;2024-02-21T02:34:11;7.05;;;3.40;;
77868;SDS011;67231;59.144;37.934;2024-02-21T02:36:38;7.40;;;3.35;;
77868;SDS011;67231;59.144;37.934;2024-02-21T02:39:05;9.82;;;3.90;;
77868;SDS011;67231;59.144;37.934;2024-02-21T02:41:34;7.03;;;1.98;;
77868;SDS011;67231;59.144;37.934;2024-02-21T02:44:02;8.35;;;3.70;;
77868;SDS011;67231;59.144;37.934;2024-02-21T02:46:28;3.17;;;1.92;;
77868;SDS011;67231;59.144;37.934;2024-02-21T02:48:55;5.57;;;2.70;;
77868;SDS011;67231;59.144;37.934;2024-02-21T02:51:21;7.60;;;3.72;;
77868;SDS011;67231;59.144;37.934;2024-02-21T02:53:48;5.35;;;2.90;;
77868;SDS011;67231;59.144;37.934;2024-02-21T02:56:14;5.95;;;2.88;;
77868;SDS011;67231;59.144;37.934;2024-02-21T02:58:44;3.58;;;1.88;;
77868;SDS011;67231;59.144;37.934;2024-02-21T03:01:11;7.57;;;3.55;;
77868;SDS011;67231;59.144;37.934;2024-02-21T03:03:37;7.20;;;3.85;;
77868;SDS011;67231;59.144;37.934;2024-02-21T03:06:03;6.07;;;3.15;;
77868;SDS011;67231;59.144;37.934;2024-02-21T03:08:30;2.45;;;2.05;;
77868;SDS011;67231;59.144;37.934;2024-02-21T03:10:56;8.70;;;3.83;;
77868;SDS011;67231;59.144;37.934;2024-02-21T03:13:22;8.02;;;3.63;;
77868;SDS011;67231;59.144;37.934;2024-02-21T03:15:49;13.20;;;4.20;;
77868;SDS011;67231;59.144;37.934;2024-02-21T03:18:15;9.68;;;4.25;;
77868;SDS011;67231;59.144;37.934;2024-02-21T03:20:42;9.02;;;4.47;;
77868;SDS011;67231;59.144;37.934;2024-02-21T03:23:08;9.02;;;3.95;;
77868;SDS011;67231;59.144;37.934;2024-02-21T03:25:34;6.88;;;3.90;;
77868;SDS011;67231;59.144;37.934;2024-02-21T03:28:01;8.15;;;2.50;;
77868;SDS011;67231;59.144;37.934;2024-02-21T03:30:27;9.38;;;4.20;;
77868;SDS011;67231;59.144;37.934;2024-02-21T03:32:54;4.70;;;2.10;;
77868;SDS011;67231;59.144;37.934;2024-02-21T03:35:20;6.75;;;3.60;;
77868;SDS011;67231;59.144;37.934;2024-02-21T03:37:46;9.63;;;4.20;;
77868;SDS011;67231;59.144;37.934;2024-02-21T03:40:13;7.90;;;4.22;;
77868;SDS011;67231;59.144;37.934;2024-02-21T03:42:40;7.60;;;3.80;;
77868;SDS011;67231;59.144;37.934;2024-02-21T03:45:06;10.82;;;4.80;;
77868;SDS011;67231;59.144;37.934;2024-02-21T03:47:33;6.28;;;4.00;;
77868;SDS011;67231;59.144;37.934;2024-02-21T03:49:59;6.13;;;2.53;;
77868;SDS011;67231;59.144;37.934;2024-02-21T03:52:26;7.47;;;3.55;;
77868;SDS011;67231;59.144;37.934;2024-02-21T03:54:52;11.40;;;4.65;;
77868;SDS011;67231;59.144;37.934;2024-02-21T03:57:20;9.40;;;4.13;;
77868;SDS011;67231;59.144;37.934;2024-02-21T03:59:50;10.25;;;4.63;;
77868;SDS011;67231;59.144;37.934;2024-02-21T04:02:18;10.32;;;4.97;;
77868;SDS011;67231;59.144;37.934;2024-02-21T04:04:44;7.50;;;4.30;;
77868;SDS011;67231;59.144;37.934;2024-02-21T04:07:14;9.23;;;3.83;;
77868;SDS011;67231;59.144;37.934;2024-02-21T04:09:40;9.57;;;4.10;;
77868;SDS011;67231;59.144;37.934;2024-02-21T04:12:08;10.00;;;4.82;;
77868;SDS011;67231;59.144;37.934;2024-02-21T04:14:35;8.02;;;4.22;;
77868;SDS011;67231;59.144;37.934;2024-02-21T04:17:01;6.47;;;3.13;;
77868;SDS011;67231;59.144;37.934;2024-02-21T04:19:28;9.13;;;4.30;;
77868;SDS011;67231;59.144;37.934;2024-02-21T04:21:54;9.90;;;4.18;;
77868;SDS011;67231;59.144;37.934;2024-02-21T04:24:21;8.80;;;4.53;;
77868;SDS011;67231;59.144;37.934;2024-02-21T04:26:47;9.07;;;4.80;;
77868;SDS011;67231;59.144;37.934;2024-02-21T04:29:13;15.25;;;5.05;;
77868;SDS011;67231;59.144;37.934;2024-02-21T04:31:39;9.77;;;4.75;;
77868;SDS011;67231;59.144;37.934;2024-02-21T04:34:06;9.63;;;4.97;;
77868;SDS011;67231;59.144;37.934;2024-02-21T04:36:32;10.85;;;5.72;;
77868;SDS011;67231;59.144;37.934;2024-02-21T04:38:59;4.45;;;2.45;;
77868;SDS011;67231;59.144;37.934;2024-02-21T04:41:25;10.90;;;5.30;;
77868;SDS011;67231;59.144;37.934;2024-02-21T04:43:51;10.52;;;4.88;;
77868;SDS011;67231;59.144;37.934;2024-02-21T04:46:18;7.90;;;4.10;;
77868;SDS011;67231;59.144;37.934;2024-02-21T04:48:44;13.52;;;5.18;;
77868;SDS011;67231;59.144;37.934;2024-02-21T04:51:11;11.48;;;4.63;;
77868;SDS011;67231;59.144;37.934;2024-02-21T04:53:39;6.15;;;3.08;;
77868;SDS011;67231;59.144;37.934;2024-02-21T04:56:05;8.82;;;4.80;;
77868;SDS011;67231;59.144;37.934;2024-02-21T04:58:32;13.15;;;5.80;;
77868;SDS011;67231;59.144;37.934;2024-02-21T05:00:58;11.60;;;5.40;;
77868;SDS011;67231;59.144;37.934;2024-02-21T05:03:24;15.13;;;5.85;;
77868;SDS011;67231;59.144;37.934;2024-02-21T05:05:51;12.85;;;5.93;;
77868;SDS011;67231;59.144;37.934;2024-02-21T05:08:17;6.68;;;3.45;;
77868;SDS011;67231;59.144;37.934;2024-02-21T05:10:43;9.45;;;4.43;;
77868;SDS011;67231;59.144;37.934;2024-02-21T05:13:10;10.57;;;5.00;;
77868;SDS011;67231;59.144;37.934;2024-02-21T05:15:36;11.05;;;5.10;;
77868;SDS011;67231;59.144;37.934;2024-02-21T05:18:02;10.52;;;4.85;;
77868;SDS011;67231;59.144;37.934;2024-02-21T05:20:29;13.20;;;6.13;;
77868;SDS011;67231;59.144;37.934;2024-02-21T05:22:55;14.75;;;5.93;;
77868;SDS011;67231;59.144;37.934;2024-02-21T05:25:22;14.52;;;5.85;;
77868;SDS011;67231;59.144;37.934;2024-02-21T05:27:50;14.27;;;5.75;;
77868;SDS011;67231;59.144;37.934;2024-02-21T05:30:19;4.35;;;2.67;;
77868;SDS011;67231;59.144;37.934;2024-02-21T05:32:46;14.85;;;5.68;;
77868;SDS011;67231;59.144;37.934;2024-02-21T05:35:12;8.48;;;4.22;;
77868;SDS011;67231;59.144;37.934;2024-02-21T05:37:39;8.98;;;4.13;;
77868;SDS011;67231;59.144;37.934;2024-02-21T05:40:05;14.60;;;5.90;;
77868;SDS011;67231;59.144;37.934;2024-02-21T05:42:32;11.75;;;5.47;;
77868;SDS011;67231;59.144;37.934;2024-02-21T05:44:59;13.18;;;6.13;;
77868;SDS011;67231;59.144;37.934;2024-02-21T05:47:25;4.28;;;2.45;;
77868;SDS011;67231;59.144;37.934;2024-02-21T05:49:53;12.32;;;5.93;;
77868;SDS011;67231;59.144;37.934;2024-02-21T05:52:20;13.00;;;6.32;;
77868;SDS011;67231;59.144;37.934;2024-02-21T05:54:47;14.13;;;6.07;;
77868;SDS011;67231;59.144;37.934;2024-02-21T05:57:13;11.63;;;4.45;;
77868;SDS011;67231;59.144;37.934;2024-02-21T05:59:39;13.85;;;5.75;;
77868;SDS011;67231;59.144;37.934;2024-02-21T06:02:07;14.25;;;5.35;;
77868;SDS011;67231;59.144;37.934;2024-02-21T06:04:34;15.57;;;6.63;;
77868;SDS011;67231;59.144;37.934;2024-02-21T06:07:01;12.00;;;5.65;;
77868;SDS011;67231;59.144;37.934;2024-02-21T06:09:28;12.38;;;5.68;;
77868;SDS011;67231;59.144;37.934;2024-02-21T06:11:55;15.07;;;5.75;;
77868;SDS011;67231;59.144;37.934;2024-02-21T06:14:22;18.73;;;6.95;;
77868;SDS011;67231;59.144;37.934;2024-02-21T06:16:48;13.75;;;5.40;;
77868;SDS011;67231;59.144;37.934;2024-02-21T06:19:15;13.77;;;6.38;;
77868;SDS011;67231;59.144;37.934;2024-02-21T06:21:41;6.15;;;3.42;;
77868;SDS011;67231;59.144;37.934;2024-02-21T06:24:08;14.82;;;6.07;;
77868;SDS011;67231;59.144;37.934;2024-02-21T06:26:35;12.00;;;5.45;;
77868;SDS011;67231;59.144;37.934;2024-02-21T06:29:01;14.98;;;6.20;;
77868;SDS011;67231;59.144;37.934;2024-02-21T06:31:28;11.23;;;4.18;;
77868;SDS011;67231;59.144;37.934;2024-02-21T06:33:55;15.38;;;5.78;;
77868;SDS011;67231;59.144;37.934;2024-02-21T06:36:22;19.85;;;8.63;;
77868;SDS011;67231;59.144;37.934;2024-02-21T06:38:48;10.10;;;4.95;;
77868;SDS011;67231;59.144;37.934;2024-02-21T06:41:15;14.10;;;6.05;;
77868;SDS011;67231;59.144;37.934;2024-02-21T06:43:42;17.70;;;6.65;;
77868;SDS011;67231;59.144;37.934;2024-02-21T06:46:10;7.10;;;3.20;;
77868;SDS011;67231;59.144;37.934;2024-02-21T06:48:36;9.70;;;4.13;;
77868;SDS011;67231;59.144;37.934;2024-02-21T06:51:03;6.38;;;3.13;;
77868;SDS011;67231;59.144;37.934;2024-02-21T06:53:29;16.15;;;6.22;;
77868;SDS011;67231;59.144;37.934;2024-02-21T06:55:56;12.93;;;5.80;;
77868;SDS011;67231;59.144;37.934;2024-02-21T06:58:22;13.50;;;5.40;;
77868;SDS011;67231;59.144;37.934;2024-02-21T07:00:48;14.80;;;6.18;;
77868;SDS011;67231;59.144;37.934;2024-02-21T07:03:15;14.65;;;7.15;;
77868;SDS011;67231;59.144;37.934;2024-02-21T07:05:41;15.73;;;5.80;;
77868;SDS011;67231;59.144;37.934;2024-02-21T07:08:08;11.30;;;4.70;;
77868;SDS011;67231;59.144;37.934;2024-02-21T07:10:34;8.35;;;3.97;;
77868;SDS011;67231;59.144;37.934;2024-02-21T07:13:00;14.30;;;5.63;;
77868;SDS011;67231;59.144;37.934;2024-02-21T07:15:26;15.98;;;6.43;;
77868;SDS011;67231;59.144;37.934;2024-02-21T07:17:54;10.27;;;4.38;;
77868;SDS011;67231;59.144;37.934;2024-02-21T07:20:20;11.75;;;5.30;;
77868;SDS011;67231;59.144;37.934;2024-02-21T07:22:47;9.38;;;4.32;;
77868;SDS011;67231;59.144;37.934;2024-02-21T07:25:14;15.23;;;6.53;;
77868;SDS011;67231;59.144;37.934;2024-02-21T07:27:41;12.45;;;5.50;;
77868;SDS011;67231;59.144;37.934;2024-02-21T07:30:08;15.77;;;7.28;;
77868;SDS011;67231;59.144;37.934;2024-02-21T07:32:35;12.00;;;5.65;;
77868;SDS011;67231;59.144;37.934;2024-02-21T07:35:02;12.75;;;5.38;;
77868;SDS011;67231;59.144;37.934;2024-02-21T07:37:28;14.95;;;6.00;;
77868;SDS011;67231;59.144;37.934;2024-02-21T07:39:55;6.25;;;3.00;;
77868;SDS011;67231;59.144;37.934;2024-02-21T07:42:22;16.38;;;7.43;;
77868;SDS011;67231;59.144;37.934;2024-02-21T07:44:48;18.90;;;8.40;;
77868;SDS011;67231;59.144;37.934;2024-02-21T07:47:15;15.15;;;6.60;;
77868;SDS011;67231;59.144;37.934;2024-02-21T07:49:43;15.40;;;6.35;;
77868;SDS011;67231;59.144;37.934;2024-02-21T07:52:11;12.00;;;5.20;;
77868;SDS011;67231;59.144;37.934;2024-02-21T07:54:37;15.55;;;6.40;;
77868;SDS011;67231;59.144;37.934;2024-02-21T07:57:04;14.38;;;5.82;;
77868;SDS011;67231;59.144;37.934;2024-02-21T07:59:30;12.00;;;5.65;;
77868;SDS011;67231;59.144;37.934;2024-02-21T08:01:59;16.85;;;6.15;;
77868;SDS011;67231;59.144;37.934;2024-02-21T08:04:32;8.70;;;4.82;;
77868;SDS011;67231;59.144;37.934;2024-02-21T08:06:59;12.63;;;5.93;;
77868;SDS011;67231;59.144;37.934;2024-02-21T08:09:28;14.00;;;6.72;;
77868;SDS011;67231;59.144;37.934;2024-02-21T08:11:54;14.93;;;6.80;;
77868;SDS011;67231;59.144;37.934;2024-02-21T08:14:21;14.77;;;6.75;;
77868;SDS011;67231;59.144;37.934;2024-02-21T08:16:48;12.18;;;5.53;;
77868;SDS011;67231;59.144;37.934;2024-02-21T08:19:14;15.13;;;6.65;;
77868;SDS011;67231;59.144;37.934;2024-02-21T08:21:41;13.90;;;6.43;;
77868;SDS011;67231;59.144;37.934;2024-02-21T08:24:08;12.52;;;5.43;;
77868;SDS011;67231;59.144;37.934;2024-02-21T08:26:35;13.80;;;6.13;;
77868;SDS011;67231;59.144;37.934;2024-02-21T08:29:09;12.20;;;5.50;;
77868;SDS011;67231;59.144;37.934;2024-02-21T08:31:35;11.25;;;4.68;;
77868;SDS011;67231;59.144;37.934;2024-02-21T08:34:02;12.63;;;6.60;;
77868;SDS011;67231;59.144;37.934;2024-02-21T08:36:33;13.68;;;6.07;;
77868;SDS011;67231;59.144;37.934;2024-02-21T08:39:01;12.60;;;6.30;;
77868;SDS011;67231;59.144;37.934;2024-02-21T08:41:32;13.43;;;6.78;;
77868;SDS011;67231;59.144;37.934;2024-02-21T08:44:00;12.30;;;5.43;;
77868;SDS011;67231;59.144;37.934;2024-02-21T08:46:27;11.90;;;5.97;;
77868;SDS011;67231;59.144;37.934;2024-02-21T08:48:54;12.50;;;5.43;;
77868;SDS011;67231;59.144;37.934;2024-02-21T08:51:23;12.45;;;6.10;;
77868;SDS011;67231;59.144;37.934;2024-02-21T08:53:50;7.53;;;4.05;;
77868;SDS011;67231;59.144;37.934;2024-02-21T08:56:17;7.95;;;4.13;;
77868;SDS011;67231;59.144;37.934;2024-02-21T08:58:44;8.00;;;3.42;;
77868;SDS011;67231;59.144;37.934;2024-02-21T09:01:10;6.38;;;3.33;;
77868;SDS011;67231;59.144;37.934;2024-02-21T09:03:37;13.30;;;6.05;;
77868;SDS011;67231;59.144;37.934;2024-02-21T09:06:05;14.45;;;6.68;;
77868;SDS011;67231;59.144;37.934;2024-02-21T09:08:32;12.35;;;5.60;;
77868;SDS011;67231;59.144;37.934;2024-02-21T09:11:00;11.50;;;5.60;;
77868;SDS011;67231;59.144;37.934;2024-02-21T09:13:29;10.35;;;5.35;;
77868;SDS011;67231;59.144;37.934;2024-02-21T09:15:56;10.32;;;4.97;;
77868;SDS011;67231;59.144;37.934;2024-02-21T09:18:23;14.45;;;7.07;;
77868;SDS011;67231;59.144;37.934;2024-02-21T09:20:50;14.13;;;6.63;;
77868;SDS011;67231;59.144;37.934;2024-02-21T09:23:17;8.57;;;4.18;;
77868;SDS011;67231;59.144;37.934;2024-02-21T09:25:45;13.32;;;6.05;;
77868;SDS011;67231;59.144;37.934;2024-02-21T09:28:12;10.20;;;4.65;;
77868;SDS011;67231;59.144;37.934;2024-02-21T09:30:42;5.97;;;3.08;;
77868;SDS011;67231;59.144;37.934;2024-02-21T09:33:09;13.23;;;5.85;;
77868;SDS011;67231;59.144;37.934;2024-02-21T09:35:35;14.07;;;6.30;;
77868;SDS011;67231;59.144;37.934;2024-02-21T09:38:02;11.63;;;6.15;;
77868;SDS011;67231;59.144;37.934;2024-02-21T09:40:28;13.30;;;6.70;;
77868;SDS011;67231;59.144;37.934;2024-02-21T09:42:59;11.85;;;6.03;;
77868;SDS011;67231;59.144;37.934;2024-02-21T09:45:33;12.90;;;6.47;;
77868;SDS011;67231;59.144;37.934;2024-02-21T09:50:40;14.13;;;6.50;;
77868;SDS011;67231;59.144;37.934;2024-02-21T09:53:10;10.27;;;4.97;;
77868;SDS011;67231;59.144;37.934;2024-02-21T09:55:41;9.93;;;5.20;;
77868;SDS011;67231;59.144;37.934;2024-02-21T09:58:10;11.27;;;5.72;;
77868;SDS011;67231;59.144;37.934;2024-02-21T10:00:37;11.95;;;6.60;;
77868;SDS011;67231;59.144;37.934;2024-02-21T10:03:04;12.55;;;5.72;;
77868;SDS011;67231;59.144;37.934;2024-02-21T10:05:35;14.05;;;6.50;;
77868;SDS011;67231;59.144;37.934;2024-02-21T10:08:03;11.30;;;5.72;;
77868;SDS011;67231;59.144;37.934;2024-02-21T10:10:49;12.18;;;6.22;;
77868;SDS011;67231;59.144;37.934;2024-02-21T10:13:23;10.98;;;5.43;;
77868;SDS011;67231;59.144;37.934;2024-02-21T10:16:07;12.00;;;6.32;;
77868;SDS011;67231;59.144;37.934;2024-02-21T10:18:34;12.43;;;6.18;;
77868;SDS011;67231;59.144;37.934;2024-02-21T10:21:05;12.38;;;5.90;;
77868;SDS011;67231;59.144;37.934;2024-02-21T10:23:43;14.57;;;6.70;;
77868;SDS011;67231;59.144;37.934;2024-02-21T10:26:19;8.32;;;4.45;;
77868;SDS011;67231;59.144;37.934;2024-02-21T10:28:49;10.10;;;5.13;;
77868;SDS011;67231;59.144;37.934;2024-02-21T10:31:21;13.45;;;6.55;;
77868;SDS011;67231;59.144;37.934;2024-02-21T10:36:25;13.02;;;5.68;;
77868;SDS011;67231;59.144;37.934;2024-02-21T10:38:53;11.73;;;5.32;;
77868;SDS011;67231;59.144;37.934;2024-02-21T10:41:20;14.38;;;6.20;;
77868;SDS011;67231;59.144;37.934;2024-02-21T10:43:51;11.88;;;6.63;;
77868;SDS011;67231;59.144;37.934;2024-02-21T10:46:22;11.95;;;5.40;;
77868;SDS011;67231;59.144;37.934;2024-02-21T10:49:07;8.02;;;4.03;;
77868;SDS011;67231;59.144;37.934;2024-02-21T10:51:40;9.80;;;4.97;;
77868;SDS011;67231;59.144;37.934;2024-02-21T10:54:24;13.27;;;6.55;;
77868;SDS011;67231;59.144;37.934;2024-02-21T10:57:10;16.15;;;7.03;;
77868;SDS011;67231;59.144;37.934;2024-02-21T10:59:44;13.00;;;6.18;;
77868;SDS011;67231;59.144;37.934;2024-02-21T11:02:14;8.32;;;3.67;;
77868;SDS011;67231;59.144;37.934;2024-02-21T11:04:41;10.30;;;5.40;;
77868;SDS011;67231;59.144;37.934;2024-02-21T11:07:09;12.80;;;5.90;;
77868;SDS011;67231;59.144;37.934;2024-02-21T11:09:37;12.18;;;5.65;;
77868;SDS011;67231;59.144;37.934;2024-02-21T11:12:04;13.68;;;6.43;;
77868;SDS011;67231;59.144;37.934;2024-02-21T11:14:37;7.88;;;4.30;;
77868;SDS011;67231;59.144;37.934;2024-02-21T11:17:15;13.25;;;6.55;;
77868;SDS011;67231;59.144;37.934;2024-02-21T11:19:52;13.02;;;5.75;;
77868;SDS011;67231;59.144;37.934;2024-02-21T11:22:19;12.32;;;5.68;;
77868;SDS011;67231;59.144;37.934;2024-02-21T11:24:51;13.60;;;6.00;;
77868;SDS011;67231;59.144;37.934;2024-02-21T11:27:22;14.10;;;5.97;;
77868;SDS011;67231;59.144;37.934;2024-02-21T11:29:58;12.50;;;6.75;;
77868;SDS011;67231;59.144;37.934;2024-02-21T11:32:28;9.98;;;4.70;;
77868;SDS011;67231;59.144;37.934;2024-02-21T11:35:05;13.27;;;6.68;;
77868;SDS011;67231;59.144;37.934;2024-02-21T11:37:39;11.45;;;5.35;;
77868;SDS011;67231;59.144;37.934;2024-02-21T11:40:08;10.02;;;4.20;;
77868;SDS011;67231;59.144;37.934;2024-02-21T11:42:36;12.98;;;6.32;;
77868;SDS011;67231;59.144;37.934;2024-02-21T11:45:06;11.43;;;5.47;;
77868;SDS011;67231;59.144;37.934;2024-02-21T11:47:35;14.00;;;6.57;;
77868;SDS011;67231;59.144;37.934;2024-02-21T11:50:09;14.73;;;7.07;;
77868;SDS011;67231;59.144;37.934;2024-02-21T11:52:36;13.45;;;6.22;;
77868;SDS011;67231;59.144;37.934;2024-02-21T11:55:02;10.13;;;4.63;;
77868;SDS011;67231;59.144;37.934;2024-02-21T11:57:31;14.85;;;6.82;;
77868;SDS011;67231;59.144;37.934;2024-02-21T11:59:57;15.35;;;7.78;;
77868;SDS011;67231;59.144;37.934;2024-02-21T12:02:25;11.02;;;5.13;;
77868;SDS011;67231;59.144;37.934;2024-02-21T12:04:52;11.05;;;6.00;;
77868;SDS011;67231;59.144;37.934;2024-02-21T12:07:22;9.05;;;4.57;;
77868;SDS011;67231;59.144;37.934;2024-02-21T12:09:51;11.23;;;4.63;;
77868;SDS011;67231;59.144;37.934;2024-02-21T12:12:19;9.95;;;4.50;;
77868;SDS011;67231;59.144;37.934;2024-02-21T12:14:46;12.63;;;6.43;;
77868;SDS011;67231;59.144;37.934;2024-02-21T12:17:12;15.40;;;6.72;;
77868;SDS011;67231;59.144;37.934;2024-02-21T12:19:38;17.48;;;7.53;;
77868;SDS011;67231;59.144;37.934;2024-02-21T12:22:05;13.30;;;6.63;;
77868;SDS011;67231;59.144;37.934;2024-02-21T12:24:31;15.80;;;6.72;;
77868;SDS011;67231;59.144;37.934;2024-02-21T12:26:58;8.60;;;4.18;;
77868;SDS011;67231;59.144;37.934;2024-02-21T12:29:26;13.80;;;6.40;;
77868;SDS011;67231;59.144;37.934;2024-02-21T12:31:53;13.88;;;7.10;;
77868;SDS011;67231;59.144;37.934;2024-02-21T12:34:23;14.13;;;6.20;;
77868;SDS011;67231;59.144;37.934;2024-02-21T12:36:50;14.65;;;6.78;;
77868;SDS011;67231;59.144;37.934;2024-02-21T12:39:17;14.48;;;6.95;;
77868;SDS011;67231;59.144;37.934;2024-02-21T12:41:44;16.25;;;7.40;;
77868;SDS011;67231;59.144;37.934;2024-02-21T12:44:11;14.73;;;7.05;;
77868;SDS011;67231;59.144;37.934;2024-02-21T12:46:38;10.25;;;4.97;;
77868;SDS011;67231;59.144;37.934;2024-02-21T12:49:08;17.52;;;6.85;;
77868;SDS011;67231;59.144;37.934;2024-02-21T12:51:35;17.55;;;8.38;;
77868;SDS011;67231;59.144;37.934;2024-02-21T12:54:02;17.42;;;8.13;;
77868;SDS011;67231;59.144;37.934;2024-02-21T12:56:31;18.63;;;7.93;;
77868;SDS011;67231;59.144;37.934;2024-02-21T12:58:58;15.98;;;6.70;;
77868;SDS011;67231;59.144;37.934;2024-02-21T13:01:24;15.27;;;7.18;;
77868;SDS011;67231;59.144;37.934;2024-02-21T13:03:52;18.75;;;8.57;;
77868;SDS011;67231;59.144;37.934;2024-02-21T13:06:20;10.05;;;5.10;;
77868;SDS011;67231;59.144;37.934;2024-02-21T13:08:46;17.95;;;7.85;;
77868;SDS011;67231;59.144;37.934;2024-02-21T13:11:13;17.10;;;8.27;;
77868;SDS011;67231;59.144;37.934;2024-02-21T13:13:40;18.58;;;8.40;;
77868;SDS011;67231;59.144;37.934;2024-02-21T13:16:06;16.65;;;7.82;;
77868;SDS011;67231;59.144;37.934;2024-02-21T13:18:34;14.18;;;6.38;;
77868;SDS011;67231;59.144;37.934;2024-02-21T13:21:04;12.25;;;5.10;;
77868;SDS011;67231;59.144;37.934;2024-02-21T13:23:31;17.52;;;8.15;;
77868;SDS011;67231;59.144;37.934;2024-02-21T13:25:58;9.98;;;4.03;;
77868;SDS011;67231;59.144;37.934;2024-02-21T13:28:24;21.88;;;9.00;;
77868;SDS011;67231;59.144;37.934;2024-02-21T13:30:51;22.20;;;8.52;;
77868;SDS011;67231;59.144;37.934;2024-02-21T13:33:17;11.57;;;5.68;;
77868;SDS011;67231;59.144;37.934;2024-02-21T13:35:43;14.88;;;6.05;;
77868;SDS011;67231;59.144;37.934;2024-02-21T13:38:10;10.07;;;4.63;;
77868;SDS011;67231;59.144;37.934;2024-02-21T13:40:37;9.05;;;4.05;;
77868;SDS011;67231;59.144;37.934;2024-02-21T13:43:04;8.98;;;4.47;;
77868;SDS011;67231;59.144;37.934;2024-02-21T13:45:30;12.35;;;5.03;;
77868;SDS011;67231;59.144;37.934;2024-02-21T13:47:57;13.07;;;5.43;;
77868;SDS011;67231;59.144;37.934;2024-02-21T13:50:30;18.45;;;8.00;;
77868;SDS011;67231;59.144;37.934;2024-02-21T13:53:07;14.40;;;6.40;;
77868;SDS011;67231;59.144;37.934;2024-02-21T13:55:35;10.88;;;4.57;;
77868;SDS011;67231;59.144;37.934;2024-02-21T13:58:01;14.93;;;6.75;;
77868;SDS011;67231;59.144;37.934;2024-02-21T14:00:29;11.57;;;5.82;;
77868;SDS011;67231;59.144;37.934;2024-02-21T14:02:55;18.50;;;8.07;;
77868;SDS011;67231;59.144;37.934;2024-02-21T14:05:24;19.52;;;7.30;;
77868;SDS011;67231;59.144;37.934;2024-02-21T14:07:50;18.25;;;8.18;;
77868;SDS011;67231;59.144;37.934;2024-02-21T14:10:20;19.02;;;7.93;;
77868;SDS011;67231;59.144;37.934;2024-02-21T14:12:47;17.77;;;7.13;;
77868;SDS011;67231;59.144;37.934;2024-02-21T14:15:14;18.60;;;8.32;;
77868;SDS011;67231;59.144;37.934;2024-02-21T14:17:40;18.45;;;7.68;;
77868;SDS011;67231;59.144;37.934;2024-02-21T14:20:07;16.67;;;7.53;;
77868;SDS011;67231;59.144;37.934;2024-02-21T14:22:34;22.13;;;8.48;;
77868;SDS011;67231;59.144;37.934;2024-02-21T14:25:04;18.20;;;7.32;;
77868;SDS011;67231;59.144;37.934;2024-02-21T14:27:33;22.23;;;7.93;;
77868;SDS011;67231;59.144;37.934;2024-02-21T14:30:02;17.10;;;6.15;;
77868;SDS011;67231;59.144;37.934;2024-02-21T14:32:31;14.43;;;5.90;;
77868;SDS011;67231;59.144;37.934;2024-02-21T14:34:58;18.58;;;7.22;;